sensor_id;sensor_type;location;lat;lon;timestamp;P1;durP1;ratioP1;P2;durP2;ratioP2
20743;SDS011;56303;52.160;-0.428;2023-07-31T00:00:20;9.70;;;5.13;;
20743;SDS011;56303;52.160;-0.428;2023-07-31T00:02:47;12.00;;;5.77;;
20743;SDS011;56303;52.160;-0.428;2023-07-31T00:05:15;7.77;;;4.33;;
20743;SDS011;56303;52.160;-0.428;2023-07-31T00:07:42;11.07;;;5.10;;
20743;SDS011;56303;52.160;-0.428;2023-07-31T00:10:09;8.40;;;5.40;;
20743;SDS011;56303;52.160;-0.428;2023-07-31T00:12:37;10.33;;;4.70;;
20743;SDS011;56303;52.160;-0.428;2023-07-31T00:15:21;9.70;;;4.27;;
20743;SDS011;56303;52.160;-0.428;2023-07-31T00:17:50;9.67;;;4.57;;
20743;SDS011;56303;52.160;-0.428;2023-07-31T00:20:37;9.97;;;4.90;;
20743;SDS011;56303;52.160;-0.428;2023-07-31T00:23:04;9.50;;;4.47;;
20743;SDS011;56303;52.160;-0.428;2023-07-31T00:25:31;11.03;;;4.93;;
20743;SDS011;56303;52.160;-0.428;2023-07-31T00:28:14;8.33;;;4.53;;
20743;SDS011;56303;52.160;-0.428;2023-07-31T00:36:26;9.43;;;4.03;;
20743;SDS011;56303;52.160;-0.428;2023-07-31T00:38:53;7.53;;;4.27;;
20743;SDS011;56303;52.160;-0.428;2023-07-31T00:41:20;6.30;;;3.27;;
20743;SDS011;56303;52.160;-0.428;2023-07-31T00:43:47;6.77;;;3.27;;
20743;SDS011;56303;52.160;-0.428;2023-07-31T00:46:14;8.73;;;3.87;;
20743;SDS011;56303;52.160;-0.428;2023-07-31T00:48:41;7.60;;;2.83;;
20743;SDS011;56303;52.160;-0.428;2023-07-31T00:51:08;7.33;;;3.07;;
20743;SDS011;56303;52.160;-0.428;2023-07-31T00:53:35;6.10;;;3.10;;
20743;SDS011;56303;52.160;-0.428;2023-07-31T00:56:03;4.67;;;3.00;;
20743;SDS011;56303;52.160;-0.428;2023-07-31T00:58:31;4.70;;;2.60;;
20743;SDS011;56303;52.160;-0.428;2023-07-31T01:01:12;5.37;;;2.70;;
20743;SDS011;56303;52.160;-0.428;2023-07-31T01:03:39;5.00;;;2.73;;
20743;SDS011;56303;52.160;-0.428;2023-07-31T01:06:18;3.80;;;2.40;;
20743;SDS011;56303;52.160;-0.428;2023-07-31T01:09:13;3.90;;;2.23;;
20743;SDS011;56303;52.160;-0.428;2023-07-31T01:11:48;2.50;;;1.97;;
20743;SDS011;56303;52.160;-0.428;2023-07-31T01:14:36;4.13;;;2.20;;
20743;SDS011;56303;52.160;-0.428;2023-07-31T01:17:02;4.03;;;2.40;;
20743;SDS011;56303;52.160;-0.428;2023-07-31T01:19:30;4.27;;;2.20;;
20743;SDS011;56303;52.160;-0.428;2023-07-31T01:26:16;2.40;;;1.80;;
20743;SDS011;56303;52.160;-0.428;2023-07-31T01:29:01;5.23;;;2.40;;
20743;SDS011;56303;52.160;-0.428;2023-07-31T01:31:48;5.00;;;2.00;;
20743;SDS011;56303;52.160;-0.428;2023-07-31T01:34:16;2.57;;;1.50;;
20743;SDS011;56303;52.160;-0.428;2023-07-31T01:36:45;2.77;;;1.43;;
20743;SDS011;56303;52.160;-0.428;2023-07-31T01:39:11;2.47;;;1.60;;
20743;SDS011;56303;52.160;-0.428;2023-07-31T01:41:38;4.57;;;2.00;;
20743;SDS011;56303;52.160;-0.428;2023-07-31T01:44:08;2.83;;;1.57;;
20743;SDS011;56303;52.160;-0.428;2023-07-31T01:46:35;2.47;;;1.53;;
20743;SDS011;56303;52.160;-0.428;2023-07-31T01:49:02;3.47;;;1.77;;
20743;SDS011;56303;52.160;-0.428;2023-07-31T01:51:29;4.63;;;1.80;;
20743;SDS011;56303;52.160;-0.428;2023-07-31T01:54:01;2.83;;;1.90;;
20743;SDS011;56303;52.160;-0.428;2023-07-31T01:56:28;3.60;;;1.67;;
20743;SDS011;56303;52.160;-0.428;2023-07-31T01:58:57;4.63;;;1.83;;
20743;SDS011;56303;52.160;-0.428;2023-07-31T02:01:24;2.20;;;1.60;;
20743;SDS011;56303;52.160;-0.428;2023-07-31T02:03:51;4.00;;;1.90;;
20743;SDS011;56303;52.160;-0.428;2023-07-31T02:06:19;1.53;;;1.03;;
20743;SDS011;56303;52.160;-0.428;2023-07-31T02:08:46;5.00;;;1.70;;
20743;SDS011;56303;52.160;-0.428;2023-07-31T02:11:12;3.47;;;1.67;;
20743;SDS011;56303;52.160;-0.428;2023-07-31T02:13:39;1.77;;;1.43;;
20743;SDS011;56303;52.160;-0.428;2023-07-31T02:16:06;3.47;;;2.37;;
20743;SDS011;56303;52.160;-0.428;2023-07-31T02:18:33;3.83;;;1.60;;
20743;SDS011;56303;52.160;-0.428;2023-07-31T02:21:00;2.33;;;1.60;;
20743;SDS011;56303;52.160;-0.428;2023-07-31T02:23:27;3.57;;;1.73;;
20743;SDS011;56303;52.160;-0.428;2023-07-31T02:25:54;2.87;;;1.70;;
20743;SDS011;56303;52.160;-0.428;2023-07-31T02:28:22;4.63;;;2.03;;
20743;SDS011;56303;52.160;-0.428;2023-07-31T02:30:50;4.03;;;1.73;;
20743;SDS011;56303;52.160;-0.428;2023-07-31T02:33:18;4.47;;;1.80;;
20743;SDS011;56303;52.160;-0.428;2023-07-31T02:35:45;2.97;;;1.80;;
20743;SDS011;56303;52.160;-0.428;2023-07-31T02:38:12;2.73;;;1.80;;
20743;SDS011;56303;52.160;-0.428;2023-07-31T02:40:39;2.40;;;1.50;;
20743;SDS011;56303;52.160;-0.428;2023-07-31T02:43:09;3.93;;;2.10;;
20743;SDS011;56303;52.160;-0.428;2023-07-31T02:45:36;2.57;;;1.60;;
20743;SDS011;56303;52.160;-0.428;2023-07-31T02:48:03;2.90;;;1.63;;
20743;SDS011;56303;52.160;-0.428;2023-07-31T02:50:30;3.10;;;1.63;;
20743;SDS011;56303;52.160;-0.428;2023-07-31T02:52:58;4.83;;;1.67;;
20743;SDS011;56303;52.160;-0.428;2023-07-31T02:55:25;3.60;;;1.70;;
20743;SDS011;56303;52.160;-0.428;2023-07-31T02:57:52;3.47;;;2.00;;
20743;SDS011;56303;52.160;-0.428;2023-07-31T03:00:19;3.63;;;2.30;;
20743;SDS011;56303;52.160;-0.428;2023-07-31T03:02:46;4.27;;;2.03;;
20743;SDS011;56303;52.160;-0.428;2023-07-31T03:05:13;3.43;;;1.87;;
20743;SDS011;56303;52.160;-0.428;2023-07-31T03:07:40;5.00;;;1.80;;
20743;SDS011;56303;52.160;-0.428;2023-07-31T03:10:07;3.47;;;1.83;;
20743;SDS011;56303;52.160;-0.428;2023-07-31T03:12:39;3.50;;;2.00;;
20743;SDS011;56303;52.160;-0.428;2023-07-31T03:15:07;3.77;;;1.90;;
20743;SDS011;56303;52.160;-0.428;2023-07-31T03:17:35;2.07;;;1.50;;
20743;SDS011;56303;52.160;-0.428;2023-07-31T03:20:04;2.23;;;1.60;;
20743;SDS011;56303;52.160;-0.428;2023-07-31T03:22:31;4.57;;;1.97;;
20743;SDS011;56303;52.160;-0.428;2023-07-31T03:24:58;5.93;;;1.87;;
20743;SDS011;56303;52.160;-0.428;2023-07-31T03:27:25;4.27;;;1.97;;
20743;SDS011;56303;52.160;-0.428;2023-07-31T03:29:52;4.40;;;1.90;;
20743;SDS011;56303;52.160;-0.428;2023-07-31T03:32:19;3.73;;;2.00;;
20743;SDS011;56303;52.160;-0.428;2023-07-31T03:34:46;5.23;;;2.00;;
20743;SDS011;56303;52.160;-0.428;2023-07-31T03:37:13;4.50;;;1.70;;
20743;SDS011;56303;52.160;-0.428;2023-07-31T03:39:40;4.17;;;2.00;;
20743;SDS011;56303;52.160;-0.428;2023-07-31T03:42:07;1.73;;;1.43;;
20743;SDS011;56303;52.160;-0.428;2023-07-31T03:44:34;2.37;;;1.70;;
20743;SDS011;56303;52.160;-0.428;2023-07-31T03:47:01;4.53;;;2.30;;
20743;SDS011;56303;52.160;-0.428;2023-07-31T03:49:28;2.80;;;1.40;;
20743;SDS011;56303;52.160;-0.428;2023-07-31T03:51:55;2.23;;;1.50;;
20743;SDS011;56303;52.160;-0.428;2023-07-31T03:54:23;4.27;;;2.00;;
20743;SDS011;56303;52.160;-0.428;2023-07-31T03:56:50;2.60;;;1.90;;
20743;SDS011;56303;52.160;-0.428;2023-07-31T03:59:16;2.17;;;1.80;;
20743;SDS011;56303;52.160;-0.428;2023-07-31T04:01:43;3.43;;;2.20;;
20743;SDS011;56303;52.160;-0.428;2023-07-31T04:04:10;3.17;;;1.60;;
20743;SDS011;56303;52.160;-0.428;2023-07-31T04:06:37;4.13;;;1.83;;
20743;SDS011;56303;52.160;-0.428;2023-07-31T04:09:04;3.63;;;2.03;;
20743;SDS011;56303;52.160;-0.428;2023-07-31T04:11:31;4.33;;;1.87;;
20743;SDS011;56303;52.160;-0.428;2023-07-31T04:13:58;3.83;;;1.90;;
20743;SDS011;56303;52.160;-0.428;2023-07-31T04:16:25;3.97;;;2.30;;
20743;SDS011;56303;52.160;-0.428;2023-07-31T04:18:52;3.70;;;2.37;;
20743;SDS011;56303;52.160;-0.428;2023-07-31T04:21:19;3.43;;;1.80;;
20743;SDS011;56303;52.160;-0.428;2023-07-31T04:24:03;3.57;;;1.70;;
20743;SDS011;56303;52.160;-0.428;2023-07-31T04:26:42;3.73;;;1.83;;
20743;SDS011;56303;52.160;-0.428;2023-07-31T04:29:09;3.60;;;2.00;;
20743;SDS011;56303;52.160;-0.428;2023-07-31T04:34:39;3.97;;;1.67;;
20743;SDS011;56303;52.160;-0.428;2023-07-31T04:37:06;2.77;;;1.80;;
20743;SDS011;56303;52.160;-0.428;2023-07-31T04:39:33;2.10;;;1.50;;
20743;SDS011;56303;52.160;-0.428;2023-07-31T04:42:00;2.30;;;1.40;;
20743;SDS011;56303;52.160;-0.428;2023-07-31T04:44:27;3.70;;;1.73;;
20743;SDS011;56303;52.160;-0.428;2023-07-31T04:46:54;2.73;;;1.80;;
20743;SDS011;56303;52.160;-0.428;2023-07-31T04:49:21;3.63;;;2.00;;
20743;SDS011;56303;52.160;-0.428;2023-07-31T04:51:48;2.80;;;1.60;;
20743;SDS011;56303;52.160;-0.428;2023-07-31T04:54:15;3.83;;;1.47;;
20743;SDS011;56303;52.160;-0.428;2023-07-31T04:56:42;3.50;;;1.63;;
20743;SDS011;56303;52.160;-0.428;2023-07-31T04:59:09;3.60;;;1.67;;
20743;SDS011;56303;52.160;-0.428;2023-07-31T05:01:44;2.47;;;1.50;;
20743;SDS011;56303;52.160;-0.428;2023-07-31T05:04:25;2.10;;;1.37;;
20743;SDS011;56303;52.160;-0.428;2023-07-31T05:14:33;1.83;;;1.13;;
20743;SDS011;56303;52.160;-0.428;2023-07-31T05:17:00;2.17;;;1.27;;
20743;SDS011;56303;52.160;-0.428;2023-07-31T05:19:33;2.53;;;1.40;;
20743;SDS011;56303;52.160;-0.428;2023-07-31T05:22:04;2.43;;;1.60;;
20743;SDS011;56303;52.160;-0.428;2023-07-31T05:25:00;1.53;;;1.37;;
20743;SDS011;56303;52.160;-0.428;2023-07-31T05:27:27;2.57;;;1.33;;
20743;SDS011;56303;52.160;-0.428;2023-07-31T05:30:00;4.10;;;1.87;;
20743;SDS011;56303;52.160;-0.428;2023-07-31T05:32:41;3.03;;;1.80;;
20743;SDS011;56303;52.160;-0.428;2023-07-31T05:35:08;4.17;;;2.00;;
20743;SDS011;56303;52.160;-0.428;2023-07-31T05:37:35;5.87;;;1.83;;
20743;SDS011;56303;52.160;-0.428;2023-07-31T05:40:02;2.40;;;1.63;;
20743;SDS011;56303;52.160;-0.428;2023-07-31T05:42:30;2.23;;;1.47;;
20743;SDS011;56303;52.160;-0.428;2023-07-31T05:44:59;3.17;;;1.70;;
20743;SDS011;56303;52.160;-0.428;2023-07-31T05:47:26;5.43;;;1.97;;
20743;SDS011;56303;52.160;-0.428;2023-07-31T05:49:53;3.40;;;1.87;;
20743;SDS011;56303;52.160;-0.428;2023-07-31T05:55:40;3.63;;;1.80;;
20743;SDS011;56303;52.160;-0.428;2023-07-31T05:58:07;3.47;;;1.90;;
20743;SDS011;56303;52.160;-0.428;2023-07-31T06:00:34;4.73;;;1.97;;
20743;SDS011;56303;52.160;-0.428;2023-07-31T06:03:01;3.23;;;1.83;;
20743;SDS011;56303;52.160;-0.428;2023-07-31T06:05:29;2.03;;;1.60;;
20743;SDS011;56303;52.160;-0.428;2023-07-31T06:09:02;3.87;;;2.00;;
20743;SDS011;56303;52.160;-0.428;2023-07-31T06:14:21;4.53;;;2.80;;
20743;SDS011;56303;52.160;-0.428;2023-07-31T06:16:48;4.50;;;2.40;;
20743;SDS011;56303;52.160;-0.428;2023-07-31T06:19:16;3.37;;;2.27;;
20743;SDS011;56303;52.160;-0.428;2023-07-31T06:21:49;4.33;;;2.60;;
20743;SDS011;56303;52.160;-0.428;2023-07-31T06:24:23;5.13;;;2.70;;
20743;SDS011;56303;52.160;-0.428;2023-07-31T06:26:54;6.93;;;2.70;;
20743;SDS011;56303;52.160;-0.428;2023-07-31T06:29:41;5.37;;;2.60;;
20743;SDS011;56303;52.160;-0.428;2023-07-31T06:32:08;7.27;;;2.73;;
20743;SDS011;56303;52.160;-0.428;2023-07-31T06:35:12;5.33;;;3.10;;
20743;SDS011;56303;52.160;-0.428;2023-07-31T06:37:40;4.50;;;2.87;;
20743;SDS011;56303;52.160;-0.428;2023-07-31T06:40:09;6.90;;;3.37;;
20743;SDS011;56303;52.160;-0.428;2023-07-31T06:42:37;5.67;;;3.40;;
20743;SDS011;56303;52.160;-0.428;2023-07-31T06:45:04;6.93;;;2.90;;
20743;SDS011;56303;52.160;-0.428;2023-07-31T06:47:32;4.53;;;3.20;;
20743;SDS011;56303;52.160;-0.428;2023-07-31T06:50:02;5.47;;;3.00;;
20743;SDS011;56303;52.160;-0.428;2023-07-31T06:52:30;5.20;;;3.07;;
20743;SDS011;56303;52.160;-0.428;2023-07-31T06:55:21;6.67;;;2.83;;
20743;SDS011;56303;52.160;-0.428;2023-07-31T06:58:21;5.70;;;3.53;;
20743;SDS011;56303;52.160;-0.428;2023-07-31T07:01:15;5.57;;;3.30;;
20743;SDS011;56303;52.160;-0.428;2023-07-31T07:03:55;5.50;;;3.13;;
20743;SDS011;56303;52.160;-0.428;2023-07-31T07:06:22;5.80;;;3.30;;
20743;SDS011;56303;52.160;-0.428;2023-07-31T07:08:50;5.10;;;3.23;;
20743;SDS011;56303;52.160;-0.428;2023-07-31T07:11:17;5.60;;;3.73;;
20743;SDS011;56303;52.160;-0.428;2023-07-31T07:13:44;6.40;;;3.60;;
20743;SDS011;56303;52.160;-0.428;2023-07-31T07:16:11;5.40;;;3.53;;
20743;SDS011;56303;52.160;-0.428;2023-07-31T07:18:38;5.43;;;3.70;;
20743;SDS011;56303;52.160;-0.428;2023-07-31T07:21:19;8.87;;;3.50;;
20743;SDS011;56303;52.160;-0.428;2023-07-31T07:23:46;4.70;;;3.33;;
20743;SDS011;56303;52.160;-0.428;2023-07-31T07:26:13;5.80;;;3.47;;
20743;SDS011;56303;52.160;-0.428;2023-07-31T07:28:40;5.63;;;3.87;;
20743;SDS011;56303;52.160;-0.428;2023-07-31T07:31:07;4.83;;;3.23;;
20743;SDS011;56303;52.160;-0.428;2023-07-31T07:33:34;4.57;;;3.23;;
20743;SDS011;56303;52.160;-0.428;2023-07-31T07:36:01;4.47;;;3.00;;
20743;SDS011;56303;52.160;-0.428;2023-07-31T07:38:28;6.37;;;3.60;;
20743;SDS011;56303;52.160;-0.428;2023-07-31T07:40:55;4.57;;;2.93;;
20743;SDS011;56303;52.160;-0.428;2023-07-31T07:43:22;4.77;;;3.07;;
20743;SDS011;56303;52.160;-0.428;2023-07-31T07:45:52;6.47;;;3.20;;
20743;SDS011;56303;52.160;-0.428;2023-07-31T07:48:19;5.83;;;3.40;;
20743;SDS011;56303;52.160;-0.428;2023-07-31T07:50:50;6.60;;;3.20;;
20743;SDS011;56303;52.160;-0.428;2023-07-31T07:53:16;6.13;;;4.37;;
20743;SDS011;56303;52.160;-0.428;2023-07-31T07:55:43;5.13;;;2.90;;
20743;SDS011;56303;52.160;-0.428;2023-07-31T07:58:10;7.13;;;3.23;;
20743;SDS011;56303;52.160;-0.428;2023-07-31T08:00:38;5.83;;;3.47;;
20743;SDS011;56303;52.160;-0.428;2023-07-31T08:03:19;6.70;;;4.47;;
20743;SDS011;56303;52.160;-0.428;2023-07-31T08:06:06;8.43;;;3.83;;
20743;SDS011;56303;52.160;-0.428;2023-07-31T08:08:59;5.50;;;3.83;;
20743;SDS011;56303;52.160;-0.428;2023-07-31T08:11:34;6.97;;;3.83;;
20743;SDS011;56303;52.160;-0.428;2023-07-31T08:14:01;5.43;;;3.97;;
20743;SDS011;56303;52.160;-0.428;2023-07-31T08:16:29;9.50;;;4.40;;
20743;SDS011;56303;52.160;-0.428;2023-07-31T08:18:56;5.67;;;4.67;;
20743;SDS011;56303;52.160;-0.428;2023-07-31T08:21:26;7.90;;;5.43;;
20743;SDS011;56303;52.160;-0.428;2023-07-31T08:24:09;6.70;;;5.00;;
20743;SDS011;56303;52.160;-0.428;2023-07-31T08:26:40;9.67;;;5.70;;
20743;SDS011;56303;52.160;-0.428;2023-07-31T08:29:10;8.10;;;5.70;;
20743;SDS011;56303;52.160;-0.428;2023-07-31T08:31:37;8.13;;;5.40;;
20743;SDS011;56303;52.160;-0.428;2023-07-31T08:34:04;6.87;;;5.10;;
20743;SDS011;56303;52.160;-0.428;2023-07-31T08:36:32;6.60;;;4.20;;
20743;SDS011;56303;52.160;-0.428;2023-07-31T08:39:00;9.90;;;4.80;;
20743;SDS011;56303;52.160;-0.428;2023-07-31T08:41:27;7.73;;;5.07;;
20743;SDS011;56303;52.160;-0.428;2023-07-31T08:43:54;7.17;;;5.43;;
20743;SDS011;56303;52.160;-0.428;2023-07-31T08:46:23;9.37;;;4.60;;
20743;SDS011;56303;52.160;-0.428;2023-07-31T08:48:50;7.37;;;4.50;;
20743;SDS011;56303;52.160;-0.428;2023-07-31T08:51:19;11.27;;;7.10;;
20743;SDS011;56303;52.160;-0.428;2023-07-31T08:53:46;7.23;;;4.20;;
20743;SDS011;56303;52.160;-0.428;2023-07-31T08:56:13;6.57;;;4.17;;
20743;SDS011;56303;52.160;-0.428;2023-07-31T08:58:43;8.07;;;4.20;;
20743;SDS011;56303;52.160;-0.428;2023-07-31T09:01:12;7.57;;;4.87;;
20743;SDS011;56303;52.160;-0.428;2023-07-31T09:03:51;8.93;;;4.73;;
20743;SDS011;56303;52.160;-0.428;2023-07-31T09:06:20;7.53;;;4.50;;
20743;SDS011;56303;52.160;-0.428;2023-07-31T09:08:54;8.40;;;3.77;;
20743;SDS011;56303;52.160;-0.428;2023-07-31T09:11:21;8.03;;;4.10;;
20743;SDS011;56303;52.160;-0.428;2023-07-31T09:13:50;6.80;;;3.73;;
20743;SDS011;56303;52.160;-0.428;2023-07-31T09:16:18;5.83;;;3.37;;
20743;SDS011;56303;52.160;-0.428;2023-07-31T09:18:54;6.53;;;3.80;;
20743;SDS011;56303;52.160;-0.428;2023-07-31T09:21:23;7.77;;;4.33;;
20743;SDS011;56303;52.160;-0.428;2023-07-31T09:23:52;6.20;;;3.90;;
20743;SDS011;56303;52.160;-0.428;2023-07-31T09:26:30;7.23;;;3.83;;
20743;SDS011;56303;52.160;-0.428;2023-07-31T09:28:59;7.53;;;4.73;;
20743;SDS011;56303;52.160;-0.428;2023-07-31T09:34:10;7.50;;;4.30;;
20743;SDS011;56303;52.160;-0.428;2023-07-31T09:36:41;5.50;;;3.33;;
20743;SDS011;56303;52.160;-0.428;2023-07-31T09:39:10;6.30;;;3.27;;
20743;SDS011;56303;52.160;-0.428;2023-07-31T09:41:38;5.07;;;3.20;;
20743;SDS011;56303;52.160;-0.428;2023-07-31T09:44:06;6.10;;;3.17;;
20743;SDS011;56303;52.160;-0.428;2023-07-31T09:46:36;5.50;;;2.93;;
20743;SDS011;56303;52.160;-0.428;2023-07-31T09:49:05;5.43;;;3.10;;
20743;SDS011;56303;52.160;-0.428;2023-07-31T09:51:39;5.07;;;3.27;;
20743;SDS011;56303;52.160;-0.428;2023-07-31T09:56:42;5.33;;;2.70;;
20743;SDS011;56303;52.160;-0.428;2023-07-31T09:59:12;5.50;;;2.93;;
20743;SDS011;56303;52.160;-0.428;2023-07-31T10:01:46;5.93;;;3.67;;
20743;SDS011;56303;52.160;-0.428;2023-07-31T10:04:14;5.87;;;3.63;;
20743;SDS011;56303;52.160;-0.428;2023-07-31T10:06:45;6.57;;;3.90;;
20743;SDS011;56303;52.160;-0.428;2023-07-31T10:09:15;7.00;;;3.90;;
20743;SDS011;56303;52.160;-0.428;2023-07-31T10:11:54;5.83;;;3.10;;
20743;SDS011;56303;52.160;-0.428;2023-07-31T10:14:25;5.40;;;2.73;;
20743;SDS011;56303;52.160;-0.428;2023-07-31T10:16:53;6.47;;;3.17;;
20743;SDS011;56303;52.160;-0.428;2023-07-31T10:19:22;4.63;;;2.87;;
20743;SDS011;56303;52.160;-0.428;2023-07-31T10:21:50;5.97;;;2.63;;
20743;SDS011;56303;52.160;-0.428;2023-07-31T10:24:17;6.30;;;2.70;;
20743;SDS011;56303;52.160;-0.428;2023-07-31T10:26:45;5.43;;;2.90;;
20743;SDS011;56303;52.160;-0.428;2023-07-31T10:29:14;3.83;;;2.50;;
20743;SDS011;56303;52.160;-0.428;2023-07-31T10:31:44;4.60;;;2.53;;
20743;SDS011;56303;52.160;-0.428;2023-07-31T10:34:46;5.60;;;2.40;;
20743;SDS011;56303;52.160;-0.428;2023-07-31T10:37:40;3.90;;;2.73;;
20743;SDS011;56303;52.160;-0.428;2023-07-31T10:43:59;4.43;;;2.90;;
20743;SDS011;56303;52.160;-0.428;2023-07-31T10:46:28;5.30;;;2.90;;
20743;SDS011;56303;52.160;-0.428;2023-07-31T10:48:59;5.43;;;3.00;;
20743;SDS011;56303;52.160;-0.428;2023-07-31T10:51:34;5.20;;;3.00;;
20743;SDS011;56303;52.160;-0.428;2023-07-31T10:54:31;4.67;;;2.93;;
20743;SDS011;56303;52.160;-0.428;2023-07-31T10:57:00;7.07;;;3.07;;
20743;SDS011;56303;52.160;-0.428;2023-07-31T10:59:33;5.10;;;2.90;;
20743;SDS011;56303;52.160;-0.428;2023-07-31T11:02:01;7.43;;;3.43;;
20743;SDS011;56303;52.160;-0.428;2023-07-31T11:04:31;8.33;;;3.37;;
20743;SDS011;56303;52.160;-0.428;2023-07-31T11:07:00;6.90;;;3.07;;
20743;SDS011;56303;52.160;-0.428;2023-07-31T11:09:29;5.37;;;2.90;;
20743;SDS011;56303;52.160;-0.428;2023-07-31T11:11:58;7.10;;;3.37;;
20743;SDS011;56303;52.160;-0.428;2023-07-31T11:14:26;4.63;;;2.73;;
20743;SDS011;56303;52.160;-0.428;2023-07-31T11:16:53;7.13;;;2.87;;
20743;SDS011;56303;52.160;-0.428;2023-07-31T11:19:23;7.33;;;3.30;;
20743;SDS011;56303;52.160;-0.428;2023-07-31T11:21:55;7.53;;;3.73;;
20743;SDS011;56303;52.160;-0.428;2023-07-31T11:24:22;5.43;;;3.43;;
20743;SDS011;56303;52.160;-0.428;2023-07-31T11:26:51;6.00;;;3.80;;
20743;SDS011;56303;52.160;-0.428;2023-07-31T11:29:19;6.33;;;3.53;;
20743;SDS011;56303;52.160;-0.428;2023-07-31T11:31:47;8.77;;;3.60;;
20743;SDS011;56303;52.160;-0.428;2023-07-31T11:34:15;5.97;;;3.83;;
20743;SDS011;56303;52.160;-0.428;2023-07-31T11:36:52;7.30;;;3.60;;
20743;SDS011;56303;52.160;-0.428;2023-07-31T11:39:21;8.33;;;3.80;;
20743;SDS011;56303;52.160;-0.428;2023-07-31T11:41:48;7.70;;;3.73;;
20743;SDS011;56303;52.160;-0.428;2023-07-31T11:44:15;8.10;;;3.20;;
20743;SDS011;56303;52.160;-0.428;2023-07-31T11:46:56;8.33;;;4.07;;
20743;SDS011;56303;52.160;-0.428;2023-07-31T11:49:23;8.87;;;3.97;;
20743;SDS011;56303;52.160;-0.428;2023-07-31T11:51:50;8.37;;;4.80;;
20743;SDS011;56303;52.160;-0.428;2023-07-31T11:54:17;8.00;;;4.67;;
20743;SDS011;56303;52.160;-0.428;2023-07-31T11:56:44;8.70;;;4.20;;
20743;SDS011;56303;52.160;-0.428;2023-07-31T11:59:12;8.07;;;4.43;;
20743;SDS011;56303;52.160;-0.428;2023-07-31T12:01:39;7.67;;;4.17;;
20743;SDS011;56303;52.160;-0.428;2023-07-31T12:04:06;9.57;;;4.73;;
20743;SDS011;56303;52.160;-0.428;2023-07-31T12:06:34;9.33;;;5.10;;
20743;SDS011;56303;52.160;-0.428;2023-07-31T12:09:03;9.53;;;5.03;;
20743;SDS011;56303;52.160;-0.428;2023-07-31T12:11:31;10.47;;;5.47;;
20743;SDS011;56303;52.160;-0.428;2023-07-31T12:14:25;8.87;;;5.07;;
20743;SDS011;56303;52.160;-0.428;2023-07-31T12:16:55;9.83;;;5.47;;
20743;SDS011;56303;52.160;-0.428;2023-07-31T12:19:24;11.47;;;5.77;;
20743;SDS011;56303;52.160;-0.428;2023-07-31T12:21:56;10.13;;;5.63;;
20743;SDS011;56303;52.160;-0.428;2023-07-31T12:24:25;9.53;;;6.10;;
20743;SDS011;56303;52.160;-0.428;2023-07-31T12:26:53;10.73;;;5.83;;
20743;SDS011;56303;52.160;-0.428;2023-07-31T12:29:21;13.33;;;6.40;;
20743;SDS011;56303;52.160;-0.428;2023-07-31T12:31:48;12.03;;;6.20;;
20743;SDS011;56303;52.160;-0.428;2023-07-31T12:34:18;10.87;;;6.67;;
20743;SDS011;56303;52.160;-0.428;2023-07-31T12:36:49;10.43;;;6.33;;
20743;SDS011;56303;52.160;-0.428;2023-07-31T12:39:20;9.87;;;5.43;;
20743;SDS011;56303;52.160;-0.428;2023-07-31T12:41:47;13.77;;;6.43;;
20743;SDS011;56303;52.160;-0.428;2023-07-31T12:44:14;10.77;;;6.57;;
20743;SDS011;56303;52.160;-0.428;2023-07-31T12:46:41;13.93;;;7.13;;
20743;SDS011;56303;52.160;-0.428;2023-07-31T12:49:08;11.10;;;6.30;;
20743;SDS011;56303;52.160;-0.428;2023-07-31T12:51:35;9.97;;;6.33;;
20743;SDS011;56303;52.160;-0.428;2023-07-31T12:54:02;8.80;;;6.43;;
20743;SDS011;56303;52.160;-0.428;2023-07-31T12:56:30;10.17;;;5.97;;
20743;SDS011;56303;52.160;-0.428;2023-07-31T12:58:57;11.23;;;5.80;;
20743;SDS011;56303;52.160;-0.428;2023-07-31T13:01:24;12.27;;;6.33;;
20743;SDS011;56303;52.160;-0.428;2023-07-31T13:03:51;10.90;;;6.23;;
20743;SDS011;56303;52.160;-0.428;2023-07-31T13:06:18;11.87;;;5.67;;
20743;SDS011;56303;52.160;-0.428;2023-07-31T13:08:45;10.57;;;6.20;;
20743;SDS011;56303;52.160;-0.428;2023-07-31T13:11:12;9.50;;;6.73;;
20743;SDS011;56303;52.160;-0.428;2023-07-31T13:13:39;13.57;;;7.10;;
20743;SDS011;56303;52.160;-0.428;2023-07-31T13:16:06;10.73;;;6.90;;
20743;SDS011;56303;52.160;-0.428;2023-07-31T13:18:33;13.33;;;6.43;;
20743;SDS011;56303;52.160;-0.428;2023-07-31T13:21:00;9.87;;;5.97;;
20743;SDS011;56303;52.160;-0.428;2023-07-31T13:23:27;10.67;;;6.20;;
20743;SDS011;56303;52.160;-0.428;2023-07-31T13:25:54;9.80;;;6.33;;
20743;SDS011;56303;52.160;-0.428;2023-07-31T13:28:21;9.07;;;6.10;;
20743;SDS011;56303;52.160;-0.428;2023-07-31T13:30:48;10.00;;;6.07;;
20743;SDS011;56303;52.160;-0.428;2023-07-31T13:33:15;9.63;;;6.33;;
20743;SDS011;56303;52.160;-0.428;2023-07-31T13:36:01;11.67;;;6.90;;
20743;SDS011;56303;52.160;-0.428;2023-07-31T13:38:27;11.20;;;7.00;;
20743;SDS011;56303;52.160;-0.428;2023-07-31T13:40:54;11.07;;;6.80;;
20743;SDS011;56303;52.160;-0.428;2023-07-31T13:43:23;9.10;;;6.20;;
20743;SDS011;56303;52.160;-0.428;2023-07-31T13:45:50;9.17;;;6.40;;
20743;SDS011;56303;52.160;-0.428;2023-07-31T13:48:17;9.77;;;6.63;;
20743;SDS011;56303;52.160;-0.428;2023-07-31T13:50:44;10.40;;;6.87;;
20743;SDS011;56303;52.160;-0.428;2023-07-31T13:53:10;12.63;;;7.37;;
20743;SDS011;56303;52.160;-0.428;2023-07-31T13:55:38;11.13;;;6.17;;
20743;SDS011;56303;52.160;-0.428;2023-07-31T13:58:04;10.97;;;6.93;;
20743;SDS011;56303;52.160;-0.428;2023-07-31T14:00:31;14.43;;;7.77;;
20743;SDS011;56303;52.160;-0.428;2023-07-31T14:02:58;14.07;;;6.97;;
20743;SDS011;56303;52.160;-0.428;2023-07-31T14:05:25;13.80;;;6.50;;
20743;SDS011;56303;52.160;-0.428;2023-07-31T14:07:52;10.57;;;5.60;;
20743;SDS011;56303;52.160;-0.428;2023-07-31T14:10:19;9.80;;;6.17;;
20743;SDS011;56303;52.160;-0.428;2023-07-31T14:12:46;14.80;;;7.30;;
20743;SDS011;56303;52.160;-0.428;2023-07-31T14:15:12;11.23;;;6.27;;
20743;SDS011;56303;52.160;-0.428;2023-07-31T14:17:39;10.47;;;6.10;;
20743;SDS011;56303;52.160;-0.428;2023-07-31T14:20:07;11.40;;;6.77;;
20743;SDS011;56303;52.160;-0.428;2023-07-31T14:22:35;14.13;;;6.87;;
20743;SDS011;56303;52.160;-0.428;2023-07-31T14:25:02;13.27;;;6.17;;
20743;SDS011;56303;52.160;-0.428;2023-07-31T14:27:29;11.80;;;6.53;;
20743;SDS011;56303;52.160;-0.428;2023-07-31T14:29:56;10.83;;;6.10;;
20743;SDS011;56303;52.160;-0.428;2023-07-31T14:32:22;11.43;;;6.40;;
20743;SDS011;56303;52.160;-0.428;2023-07-31T14:34:52;13.10;;;7.30;;
20743;SDS011;56303;52.160;-0.428;2023-07-31T14:37:19;10.70;;;5.83;;
20743;SDS011;56303;52.160;-0.428;2023-07-31T14:39:46;9.23;;;5.40;;
20743;SDS011;56303;52.160;-0.428;2023-07-31T14:42:13;10.20;;;5.93;;
20743;SDS011;56303;52.160;-0.428;2023-07-31T14:44:40;10.00;;;5.87;;
20743;SDS011;56303;52.160;-0.428;2023-07-31T14:47:07;9.77;;;6.07;;
20743;SDS011;56303;52.160;-0.428;2023-07-31T14:49:34;10.93;;;6.23;;
20743;SDS011;56303;52.160;-0.428;2023-07-31T14:52:00;11.77;;;6.40;;
20743;SDS011;56303;52.160;-0.428;2023-07-31T14:54:27;10.40;;;5.57;;
20743;SDS011;56303;52.160;-0.428;2023-07-31T14:56:54;10.80;;;5.57;;
20743;SDS011;56303;52.160;-0.428;2023-07-31T14:59:21;13.07;;;5.80;;
20743;SDS011;56303;52.160;-0.428;2023-07-31T15:01:48;10.87;;;5.47;;
20743;SDS011;56303;52.160;-0.428;2023-07-31T15:04:15;12.77;;;5.53;;
20743;SDS011;56303;52.160;-0.428;2023-07-31T15:06:42;9.50;;;5.60;;
20743;SDS011;56303;52.160;-0.428;2023-07-31T15:09:09;14.03;;;5.70;;
20743;SDS011;56303;52.160;-0.428;2023-07-31T15:11:36;12.27;;;5.70;;
20743;SDS011;56303;52.160;-0.428;2023-07-31T15:14:03;11.63;;;5.87;;
20743;SDS011;56303;52.160;-0.428;2023-07-31T15:16:30;11.20;;;5.43;;
20743;SDS011;56303;52.160;-0.428;2023-07-31T15:18:57;11.53;;;5.30;;
20743;SDS011;56303;52.160;-0.428;2023-07-31T15:21:24;11.40;;;5.57;;
20743;SDS011;56303;52.160;-0.428;2023-07-31T15:23:52;9.57;;;4.83;;